Time;durP1;ratioP1;P1;durP2;ratioP2;P2;SDS_P1;SDS_P2;PMS_P1;PMS_P2;Temp;Humidity;BMP_temperature;BMP_pressure;BME280_temperature;BME280_humidity;BME280_pressure;Samples;Min_cycle;Max_cycle;Signal;HPM_P1;HPM_P2
2022/03/28 00:01:19;;;;;;;24.58;14.13;;;1.80;99.90;;;;;;5039751;28;20061;-81
2022/03/28 00:03:47;;;;;;;24.08;14.95;;;1.70;99.90;;;;;;5037800;28;20073;-82
2022/03/28 00:06:14;;;;;;;24.95;14.13;;;1.60;99.90;;;;;;5037282;28;20560;-81
2022/03/28 00:08:40;;;;;;;24.48;14.85;;;1.50;99.90;;;;;;5038917;28;20089;-82
2022/03/28 00:11:07;;;;;;;23.75;14.98;;;1.40;99.90;;;;;;5037297;28;20050;-82
2022/03/28 00:13:35;;;;;;;23.50;14.32;;;1.30;99.90;;;;;;5038785;28;20124;-82
2022/03/28 00:16:03;;;;;;;28.77;14.38;;;1.20;99.90;;;;;;5037082;28;20049;-82
2022/03/28 00:18:30;;;;;;;25.52;14.75;;;1.20;99.90;;;;;;5037015;28;20064;-81
2022/03/28 00:20:57;;;;;;;28.25;15.68;;;1.10;99.90;;;;;;5037121;28;20081;-81
2022/03/28 00:23:24;;;;;;;27.98;16.00;;;1.10;99.90;;;;;;5038593;28;20078;-82
2022/03/28 00:25:51;;;;;;;30.60;17.70;;;1.10;99.90;;;;;;5037277;28;20128;-82
2022/03/28 00:28:18;;;;;;;28.88;16.17;;;1.10;99.90;;;;;;5037676;28;20092;-82
2022/03/28 00:30:45;;;;;;;27.48;15.43;;;1.10;99.90;;;;;;5037661;28;20507;-82
2022/03/28 00:33:12;;;;;;;27.15;15.77;;;1.20;99.90;;;;;;5037782;28;20140;-82
2022/03/28 00:35:39;;;;;;;27.95;16.17;;;1.20;99.90;;;;;;5039263;28;20470;-82
2022/03/28 00:38:06;;;;;;;30.38;16.48;;;1.20;99.90;;;;;;5038958;28;20049;-80
2022/03/28 00:40:33;;;;;;;26.48;15.95;;;1.20;99.90;;;;;;5047477;28;20494;-83
2022/03/28 00:43:07;;;;;;;28.48;16.13;;;1.10;99.90;;;;;;5037009;28;20049;-82
2022/03/28 00:45:35;;;;;;;27.48;16.25;;;1.20;99.90;;;;;;5037714;28;20091;-83
2022/03/28 00:48:02;;;;;;;30.50;17.05;;;1.20;99.90;;;;;;5038483;28;20120;-81
2022/03/28 00:50:30;;;;;;;27.98;15.57;;;1.10;99.90;;;;;;5036851;28;20510;-82
2022/03/28 00:52:57;;;;;;;25.42;15.95;;;1.30;99.90;;;;;;5037210;28;20128;-82
2022/03/28 00:55:25;;;;;;;29.13;15.27;;;1.20;99.90;;;;;;5036929;28;20084;-82
2022/03/28 00:57:52;;;;;;;26.42;14.75;;;1.20;99.90;;;;;;5039643;28;20093;-81
2022/03/28 01:00:19;;;;;;;27.73;14.85;;;1.00;99.90;;;;;;5039186;28;20144;-79
2022/03/28 01:02:47;;;;;;;24.50;13.82;;;0.90;99.90;;;;;;5038521;28;20483;-81
2022/03/28 01:05:14;;;;;;;26.58;14.70;;;0.80;99.90;;;;;;5037422;28;20050;-79
2022/03/28 01:07:42;;;;;;;27.30;15.45;;;0.80;99.90;;;;;;5037207;28;20469;-82
2022/03/28 01:10:10;;;;;;;26.15;15.18;;;0.70;99.90;;;;;;5037206;28;20049;-82
2022/03/28 01:12:42;;;;;;;26.73;15.38;;;0.70;99.90;;;;;;5036828;28;20057;-83
2022/03/28 01:15:14;;;;;;;27.27;15.63;;;0.60;99.90;;;;;;5037874;28;20072;-83
2022/03/28 01:20:32;;;;;;;26.40;15.13;;;0.60;99.90;;;;;;5039826;28;20051;-83
2022/03/28 01:22:59;;;;;;;27.63;14.65;;;0.70;99.90;;;;;;5038050;28;20132;-82
2022/03/28 01:25:29;;;;;;;27.05;14.77;;;0.60;99.90;;;;;;5038345;28;20049;-82
2022/03/28 01:27:58;;;;;;;29.63;15.27;;;0.60;99.90;;;;;;5038226;28;20123;-80
2022/03/28 01:30:28;;;;;;;34.53;16.73;;;0.60;99.90;;;;;;5038445;28;20041;-80
2022/03/28 01:32:56;;;;;;;31.73;15.98;;;0.70;99.90;;;;;;5039028;28;20045;-80
2022/03/28 01:35:28;;;;;;;29.85;16.75;;;0.70;99.90;;;;;;5040708;28;20113;-79
2022/03/28 01:37:55;;;;;;;26.00;14.68;;;0.80;99.90;;;;;;5039025;28;20577;-79
2022/03/28 01:40:23;;;;;;;29.55;14.90;;;0.70;99.90;;;;;;5038577;28;20136;-80
2022/03/28 01:42:50;;;;;;;27.80;15.45;;;0.70;99.90;;;;;;5036896;28;20080;-80
2022/03/28 01:45:18;;;;;;;26.73;14.77;;;0.60;99.90;;;;;;5037764;28;20052;-80
2022/03/28 01:47:46;;;;;;;25.63;14.68;;;0.50;99.90;;;;;;5038155;28;20092;-80
2022/03/28 01:50:14;;;;;;;28.60;15.35;;;0.50;99.90;;;;;;5038958;28;20076;-80
2022/03/28 01:52:41;;;;;;;30.52;15.57;;;0.40;99.90;;;;;;5039514;28;20042;-80
2022/03/28 01:55:09;;;;;;;32.00;16.60;;;0.40;99.90;;;;;;5040921;28;20132;-81
2022/03/28 01:57:37;;;;;;;29.67;14.73;;;;;;;;;;5041423;28;20089;-81
2022/03/28 02:00:06;;;;;;;27.60;15.45;;;;;;;;;;5036737;28;20132;-83
2022/03/28 02:02:33;;;;;;;31.73;16.70;;;;;;;;;;5034172;28;20141;-80
2022/03/28 02:05:00;;;;;;;29.05;16.17;;;;;;;;;;5038207;28;20053;-79
2022/03/28 02:07:27;;;;;;;34.10;17.52;;;0.50;99.90;;;;;;5036524;28;20567;-80
2022/03/28 02:09:55;;;;;;;30.25;17.23;;;0.50;99.90;;;;;;5036622;28;20068;-79
2022/03/28 02:12:22;;;;;;;29.42;16.60;;;0.40;99.90;;;;;;5037174;28;20118;-80
2022/03/28 02:14:50;;;;;;;32.97;16.85;;;0.40;99.90;;;;;;5038302;28;20574;-80
2022/03/28 02:17:17;;;;;;;30.10;16.45;;;0.30;99.90;;;;;;5034319;28;20152;-83
2022/03/28 02:19:43;;;;;;;25.10;13.98;;;0.20;99.90;;;;;;5033844;28;20100;-82
2022/03/28 02:22:10;;;;;;;26.88;14.95;;;0.20;99.90;;;;;;5033805;28;20088;-80
2022/03/28 02:24:39;;;;;;;26.23;14.30;;;0.20;99.90;;;;;;5037650;28;20049;-80
2022/03/28 02:27:06;;;;;;;28.20;15.13;;;0.20;99.90;;;;;;5037760;28;20053;-80
2022/03/28 02:29:33;;;;;;;31.52;15.43;;;0.20;99.90;;;;;;5038258;28;20457;-80
2022/03/28 02:32:01;;;;;;;31.98;15.18;;;0.10;99.90;;;;;;5037923;28;20458;-80
2022/03/28 02:34:28;;;;;;;32.25;15.02;;;0.10;99.90;;;;;;5038468;28;20053;-81
2022/03/28 02:36:55;;;;;;;29.73;15.65;;;0.10;99.90;;;;;;5034149;28;20110;-82
2022/03/28 02:39:22;;;;;;;31.25;15.70;;;0.10;99.90;;;;;;5035156;28;20060;-81
2022/03/28 02:41:49;;;;;;;27.83;15.30;;;0.00;99.90;;;;;;5034993;28;20140;-82
2022/03/28 02:44:17;;;;;;;30.25;16.58;;;0.00;99.90;;;;;;5035538;28;20495;-82
2022/03/28 02:46:47;;;;;;;33.95;16.48;;;0.00;99.90;;;;;;5034690;28;20099;-82
2022/03/28 02:49:14;;;;;;;30.42;15.85;;;;;;;;;;5034559;28;20069;-83
2022/03/28 02:51:43;;;;;;;28.65;15.15;;;;;;;;;;5034862;28;20132;-82
2022/03/28 02:54:10;;;;;;;32.22;15.77;;;;;;;;;;5037441;28;20049;-83
2022/03/28 02:56:37;;;;;;;28.70;16.00;;;;;;;;;;5034901;28;20483;-83
2022/03/28 02:59:05;;;;;;;36.60;16.63;;;;;;;;;;5035526;28;20049;-83
2022/03/28 03:01:32;;;;;;;27.67;15.23;;;;;;;;;;5035439;28;20533;-82
2022/03/28 03:04:00;;;;;;;31.48;15.82;;;;;;;;;;5038109;28;20041;-81
2022/03/28 03:06:27;;;;;;;34.67;16.30;;;;;;;;;;5038322;28;20077;-80
2022/03/28 03:08:54;;;;;;;35.55;16.90;;;;;;;;;;5037680;28;20132;-81
2022/03/28 03:11:22;;;;;;;26.15;15.93;;;;;;;;;;5038318;28;20115;-80
2022/03/28 03:13:50;;;;;;;82.07;19.88;;;;;;;;;;5038733;28;20160;-82
2022/03/28 03:16:19;;;;;;;43.92;17.10;;;;;;;;;;5039136;28;20582;-79
2022/03/28 03:18:46;;;;;;;48.42;16.35;;;;;;;;;;5033934;28;20052;-82
2022/03/28 03:21:13;;;;;;;39.65;16.52;;;;;;;;;;5041795;22;20073;-80
2022/03/28 03:23:40;;;;;;;37.20;18.10;;;0.10;99.90;;;;;;5013397;28;20141;-81
2022/03/28 03:26:07;;;;;;;40.20;18.65;;;0.10;99.90;;;;;;5014564;28;20048;-82
2022/03/28 03:28:34;;;;;;;33.58;17.48;;;0.10;99.90;;;;;;5014469;28;20085;-82
2022/03/28 03:31:01;;;;;;;34.72;17.02;;;0.20;99.90;;;;;;5015460;28;20084;-79
2022/03/28 03:33:27;;;;;;;36.67;16.73;;;0.20;99.90;;;;;;5016735;28;20046;-82
2022/03/28 03:35:54;;;;;;;33.80;17.33;;;0.10;99.90;;;;;;5017057;28;20108;-81
2022/03/28 03:38:21;;;;;;;35.88;16.17;;;0.00;99.90;;;;;;5017952;28;20506;-79
2022/03/28 03:40:48;;;;;;;26.55;15.15;;;0.00;99.90;;;;;;5019329;28;20140;-81
2022/03/28 03:43:15;;;;;;;47.00;16.50;;;0.00;99.90;;;;;;5018521;28;20085;-79
2022/03/28 03:45:41;;;;;;;33.38;16.88;;;0.00;99.90;;;;;;5017698;28;20057;-78
2022/03/28 03:48:08;;;;;;;28.40;15.32;;;0.00;99.90;;;;;;5018209;28;20046;-80
2022/03/28 03:50:36;;;;;;;37.58;16.83;;;0.00;99.90;;;;;;5018663;28;20041;-79
2022/03/28 03:53:02;;;;;;;39.00;17.38;;;0.00;99.90;;;;;;5019452;28;20100;-80
2022/03/28 03:55:29;;;;;;;41.25;16.55;;;0.00;99.90;;;;;;5017892;28;20140;-79
2022/03/28 03:57:56;;;;;;;32.28;15.85;;;0.00;99.90;;;;;;5019148;28;20103;-78
2022/03/28 04:00:23;;;;;;;33.15;17.85;;;-0.20;99.90;;;;;;5019187;28;20137;-80
2022/03/28 04:02:50;;;;;;;28.98;15.57;;;-0.10;99.90;;;;;;5017794;28;20077;-79
2022/03/28 04:05:18;;;;;;;39.42;17.48;;;-0.10;99.90;;;;;;5018285;28;20070;-80
2022/03/28 04:07:45;;;;;;;31.50;16.52;;;-0.10;99.90;;;;;;5018886;28;20546;-78
2022/03/28 04:10:12;;;;;;;38.92;19.52;;;-0.10;99.90;;;;;;5019104;28;20541;-79
2022/03/28 04:12:39;;;;;;;33.72;18.52;;;-0.20;99.90;;;;;;5019153;28;20137;-82
2022/03/28 04:15:06;;;;;;;33.03;16.83;;;-0.20;99.90;;;;;;5020477;28;20084;-83
2022/03/28 04:17:42;;;;;;;32.53;16.38;;;-0.30;99.90;;;;;;5019265;28;20058;-83
2022/03/28 04:20:12;;;;;;;34.90;17.88;;;-0.40;99.90;;;;;;5019886;28;20090;-81
2022/03/28 04:22:40;;;;;;;38.83;18.55;;;-0.40;99.90;;;;;;5021296;28;20104;-81
2022/03/28 04:25:09;;;;;;;36.50;17.70;;;-0.40;99.90;;;;;;5022141;28;20049;-80
2022/03/28 04:27:37;;;;;;;34.75;18.08;;;-0.40;99.90;;;;;;5018643;28;20046;-80
2022/03/28 04:30:09;;;;;;;37.33;17.42;;;-0.50;99.90;;;;;;5018506;28;20092;-80
2022/03/28 04:32:36;;;;;;;41.55;16.27;;;-0.50;99.90;;;;;;5017486;28;20046;-80
2022/03/28 04:35:05;;;;;;;32.75;17.95;;;-0.40;99.90;;;;;;5018276;28;20140;-82
2022/03/28 04:37:34;;;;;;;42.53;18.52;;;-0.40;99.90;;;;;;5017812;28;20137;-82
2022/03/28 04:43:29;;;;;;;49.63;19.80;;;-0.40;99.90;;;;;;5268545;22;20122;-85
2022/03/28 04:45:56;;;;;;;39.13;19.35;;;-0.40;99.90;;;;;;5034488;28;20056;-85
2022/03/28 04:48:23;;;;;;;34.50;17.38;;;-0.50;99.90;;;;;;5034806;28;20451;-85
2022/03/28 04:50:50;;;;;;;34.53;18.65;;;-0.50;99.90;;;;;;5033437;28;20119;-85
2022/03/28 04:53:17;;;;;;;35.40;18.52;;;-0.50;99.90;;;;;;5034790;28;20060;-85
2022/03/28 04:55:44;;;;;;;34.42;18.20;;;-0.50;99.90;;;;;;5037415;28;20050;-85
2022/03/28 04:58:11;;;;;;;39.20;18.45;;;-0.60;99.90;;;;;;5034045;28;20494;-85
2022/03/28 05:00:38;;;;;;;34.22;16.95;;;-0.50;99.90;;;;;;5033977;28;20057;-86
2022/03/28 05:03:05;;;;;;;43.90;18.80;;;-0.50;99.90;;;;;;5033458;28;20046;-84
2022/03/28 05:05:32;;;;;;;41.40;18.33;;;-0.40;99.90;;;;;;5033923;28;20060;-85
2022/03/28 05:07:58;;;;;;;37.60;18.05;;;-0.40;99.90;;;;;;5034245;28;20052;-85
2022/03/28 05:10:25;;;;;;;36.38;18.25;;;-0.40;99.90;;;;;;5034110;28;20050;-85
2022/03/28 05:12:52;;;;;;;39.53;19.00;;;-0.30;99.90;;;;;;5033098;28;20564;-85
2022/03/28 05:15:19;;;;;;;38.20;17.42;;;-0.30;99.90;;;;;;5032788;28;20060;-85
2022/03/28 05:17:45;;;;;;;56.80;18.20;;;-0.20;99.90;;;;;;5033061;28;20128;-85
2022/03/28 05:20:13;;;;;;;46.92;18.85;;;-0.10;99.90;;;;;;5033044;28;20053;-85
2022/03/28 05:22:40;;;;;;;38.05;17.60;;;0.00;99.90;;;;;;5032562;28;20059;-85
2022/03/28 05:25:07;;;;;;;44.03;20.75;;;-0.10;99.90;;;;;;5032870;28;20045;-85
2022/03/28 05:27:42;;;;;;;39.60;17.75;;;-0.10;99.90;;;;;;5034073;28;20125;-85
2022/03/28 05:30:09;;;;;;;47.83;20.73;;;0.00;99.90;;;;;;5032958;28;20053;-85
2022/03/28 05:32:36;;;;;;;43.05;20.20;;;0.10;99.90;;;;;;5032665;28;20072;-85
2022/03/28 05:35:05;;;;;;;43.63;19.00;;;0.10;99.90;;;;;;5033480;28;20061;-85
2022/03/28 05:37:33;;;;;;;49.15;20.80;;;0.10;99.90;;;;;;5014703;28;20052;-85
2022/03/28 05:40:01;;;;;;;42.67;19.75;;;0.30;99.90;;;;;;5012052;28;20581;-84
2022/03/28 05:42:28;;;;;;;58.55;23.05;;;0.30;99.90;;;;;;5011408;28;20116;-85
2022/03/28 05:44:55;;;;;;;50.88;23.05;;;0.30;99.90;;;;;;5013279;28;20056;-85
2022/03/28 05:47:21;;;;;;;44.30;23.77;;;0.30;99.90;;;;;;5012027;28;20125;-85
2022/03/28 05:49:48;;;;;;;52.28;23.67;;;0.40;99.90;;;;;;5012174;28;20053;-85
2022/03/28 05:52:15;;;;;;;55.20;22.58;;;0.50;99.90;;;;;;5022438;28;20046;-85
2022/03/28 05:54:43;;;;;;;58.60;24.42;;;0.50;99.90;;;;;;5031628;28;20493;-85
2022/03/28 05:57:11;;;;;;;63.25;26.77;;;0.50;99.90;;;;;;5032957;28;20045;-84
2022/03/28 05:59:38;;;;;;;59.20;26.33;;;0.60;99.90;;;;;;5035269;28;20054;-84
2022/03/28 06:02:05;;;;;;;63.45;25.65;;;0.70;99.90;;;;;;5033803;28;20053;-85
2022/03/28 06:04:33;;;;;;;65.35;28.98;;;0.70;99.90;;;;;;5032431;28;20069;-85
2022/03/28 06:07:02;;;;;;;72.65;29.65;;;0.80;99.90;;;;;;5035877;28;20585;-84
2022/03/28 06:09:29;;;;;;;61.78;26.80;;;0.80;99.90;;;;;;5039024;28;20410;-85
2022/03/28 06:11:56;;;;;;;80.22;26.83;;;1.00;99.90;;;;;;5037033;28;20072;-84
2022/03/28 06:14:24;;;;;;;234.23;49.20;;;1.10;99.90;;;;;;5031822;28;20045;-85
2022/03/28 06:16:52;;;;;;;618.33;122.97;;;1.60;99.90;;;;;;5031199;28;20082;-85
2022/03/28 06:19:19;;;;;;;674.67;113.32;;;2.50;99.90;;;;;;5032578;28;20041;-85
2022/03/28 06:21:46;;;;;;;149.00;47.13;;;3.00;99.90;;;;;;5031324;28;20418;-85
2022/03/28 06:24:12;;;;;;;58.97;31.02;;;4.10;99.90;;;;;;5031499;28;20091;-85
2022/03/28 06:26:39;;;;;;;46.03;26.35;;;4.70;99.90;;;;;;5031370;28;20063;-85
2022/03/28 06:29:09;;;;;;;45.22;24.33;;;5.00;99.90;;;;;;5030996;28;20498;-84
2022/03/28 06:31:36;;;;;;;54.40;25.23;;;5.20;99.90;;;;;;5031704;28;20149;-83
2022/03/28 06:34:03;;;;;;;44.13;22.65;;;5.30;99.90;;;;;;5032284;28;20049;-84
2022/03/28 06:36:31;;;;;;;30.98;19.02;;;5.70;99.90;;;;;;5032376;28;20053;-85
2022/03/28 06:38:57;;;;;;;26.60;18.17;;;6.00;99.90;;;;;;5031408;28;20052;-84
2022/03/28 06:41:24;;;;;;;43.65;22.17;;;6.40;99.90;;;;;;5032151;28;20450;-85
2022/03/28 06:43:51;;;;;;;28.23;15.93;;;6.60;99.90;;;;;;5031008;28;20152;-85
2022/03/28 06:46:20;;;;;;;33.10;14.23;;;7.00;99.90;;;;;;5032282;28;20050;-85
2022/03/28 06:48:49;;;;;;;57.53;18.70;;;7.30;99.90;;;;;;5031289;28;20095;-85
2022/03/28 06:51:16;;;;;;;65.95;19.33;;;7.40;99.90;;;;;;5032719;28;20413;-85
2022/03/28 06:53:48;;;;;;;76.20;18.35;;;7.80;99.90;;;;;;5011955;28;20050;-85
2022/03/28 06:56:16;;;;;;;72.43;18.20;;;8.00;99.90;;;;;;5030657;28;20057;-85
2022/03/28 06:58:43;;;;;;;57.20;17.45;;;8.10;99.90;;;;;;5031505;28;20482;-85
2022/03/28 07:01:10;;;;;;;44.70;17.23;;;7.90;99.90;;;;;;5032286;28;20144;-85
2022/03/28 07:03:38;;;;;;;42.33;13.98;;;8.50;99.90;;;;;;5032573;28;20077;-85
2022/03/28 07:06:06;;;;;;;39.35;12.68;;;9.20;99.90;;;;;;5031034;28;20413;-85
2022/03/28 07:08:32;;;;;;;38.13;12.35;;;9.00;99.90;;;;;;5035170;28;20485;-85
2022/03/28 07:10:59;;;;;;;36.53;13.60;;;9.20;99.90;;;;;;5036313;28;20056;-85
2022/03/28 07:13:26;;;;;;;39.03;12.73;;;9.50;99.90;;;;;;5036353;28;20067;-85
2022/03/28 07:15:53;;;;;;;33.03;12.88;;;9.60;99.90;;;;;;5034732;28;20042;-85
2022/03/28 07:18:20;;;;;;;37.53;12.40;;;9.70;99.90;;;;;;5035225;28;20052;-85
2022/03/28 07:20:46;;;;;;;28.75;11.35;;;9.60;99.90;;;;;;5035938;28;20408;-85
2022/03/28 07:23:13;;;;;;;29.52;10.40;;;9.60;99.90;;;;;;5034607;28;20056;-85
2022/03/28 07:25:40;;;;;;;25.85;10.50;;;10.00;99.90;;;;;;5036795;28;20050;-84
2022/03/28 07:28:12;;;;;;;13.98;8.80;;;10.20;99.90;;;;;;5038825;28;20140;-85
2022/03/28 07:30:41;;;;;;;20.63;8.93;;;10.50;99.90;;;;;;5034500;28;20104;-85
2022/03/28 07:33:08;;;;;;;44.95;13.02;;;10.70;99.90;;;;;;5035863;28;20059;-85
2022/03/28 07:35:37;;;;;;;26.02;11.43;;;11.10;99.90;;;;;;5034559;28;20512;-85
2022/03/28 07:38:08;;;;;;;38.22;12.07;;;12.00;99.90;;;;;;5034148;28;20056;-85
2022/03/28 07:40:36;;;;;;;32.33;11.18;;;13.70;99.90;;;;;;5034413;28;20103;-84
2022/03/28 07:43:04;;;;;;;36.17;11.88;;;14.90;99.90;;;;;;5034273;28;20514;-85
2022/03/28 07:45:31;;;;;;;26.58;9.13;;;15.50;99.90;;;;;;5032858;28;20059;-85
2022/03/28 07:47:58;;;;;;;19.33;8.05;;;16.30;99.90;;;;;;5033248;28;20124;-85
2022/03/28 07:50:25;;;;;;;51.40;11.65;;;17.10;96.40;;;;;;5033639;28;20057;-86
2022/03/28 07:52:52;;;;;;;126.78;15.43;;;17.40;93.20;;;;;;5034363;28;20128;-85
2022/03/28 07:55:19;;;;;;;28.77;10.23;;;18.40;91.90;;;;;;5034491;28;20046;-85
2022/03/28 07:57:46;;;;;;;36.10;11.30;;;18.60;89.00;;;;;;5034254;28;20524;-85
2022/03/28 08:00:16;;;;;;;37.95;11.00;;;19.30;85.20;;;;;;5035478;28;20046;-85
2022/03/28 08:02:52;;;;;;;31.05;10.00;;;19.70;82.30;;;;;;5034107;28;20557;-86
2022/03/28 08:05:20;;;;;;;25.42;8.63;;;19.00;84.20;;;;;;5035289;28;20049;-85
2022/03/28 08:07:50;;;;;;;31.67;8.68;;;19.80;80.20;;;;;;5033977;28;20050;-86
2022/03/28 08:10:16;;;;;;;23.80;8.73;;;20.50;78.20;;;;;;5034141;28;20041;-85
2022/03/28 08:12:43;;;;;;;27.70;8.80;;;20.30;76.80;;;;;;5035221;28;20053;-85
2022/03/28 08:15:13;;;;;;;33.42;9.10;;;20.30;76.80;;;;;;5035277;28;20049;-86
2022/03/28 08:17:41;;;;;;;26.52;8.55;;;20.30;76.80;;;;;;5033719;28;20041;-86
2022/03/28 08:20:09;;;;;;;15.43;7.57;;;22.10;73.50;;;;;;5034406;28;20136;-86
2022/03/28 08:22:45;;;;;;;41.33;9.48;;;23.30;68.30;;;;;;5033899;28;20493;-86
2022/03/28 08:25:13;;;;;;;20.05;8.02;;;23.00;67.60;;;;;;5030185;28;20413;-86
2022/03/28 08:27:41;;;;;;;21.30;8.75;;;23.40;67.00;;;;;;5034630;28;20045;-86
2022/03/28 08:30:09;;;;;;;17.02;7.22;;;23.80;66.10;;;;;;5033551;28;20099;-86
2022/03/28 08:32:36;;;;;;;13.55;6.70;;;24.10;65.10;;;;;;5033692;28;20549;-86
2022/03/28 08:35:04;;;;;;;15.30;7.03;;;24.20;65.50;;;;;;5034557;28;20049;-86
2022/03/28 08:37:31;;;;;;;17.33;6.68;;;24.00;65.00;;;;;;5033361;28;20053;-86
2022/03/28 08:39:59;;;;;;;14.02;5.90;;;24.30;63.50;;;;;;5033850;28;20053;-86
2022/03/28 08:42:26;;;;;;;29.98;7.75;;;24.20;65.60;;;;;;5038591;28;20069;-86
2022/03/28 08:44:53;;;;;;;37.05;8.02;;;24.70;64.30;;;;;;5033168;28;20494;-86
2022/03/28 08:47:23;;;;;;;16.38;6.70;;;24.10;65.60;;;;;;5030374;28;20045;-86
2022/03/28 08:49:52;;;;;;;13.13;6.20;;;24.40;63.90;;;;;;5032798;28;20041;-86
2022/03/28 08:52:20;;;;;;;13.80;5.85;;;24.40;64.80;;;;;;5033017;28;20053;-86
2022/03/28 08:54:48;;;;;;;14.93;5.80;;;24.90;63.40;;;;;;5033141;28;20041;-86
2022/03/28 08:57:16;;;;;;;13.60;6.28;;;25.50;61.80;;;;;;5038260;28;20053;-86
2022/03/28 08:59:43;;;;;;;21.67;6.22;;;25.20;63.40;;;;;;5033157;28;20049;-86
2022/03/28 09:02:39;;;;;;;13.85;5.55;;;24.80;65.40;;;;;;5032639;28;20057;-86
2022/03/28 09:05:06;;;;;;;8.82;4.90;;;25.40;64.20;;;;;;5033322;28;20053;-85
2022/03/28 09:07:33;;;;;;;13.30;5.55;;;27.20;60.90;;;;;;5032392;28;20136;-84
2022/03/28 09:10:05;;;;;;;14.88;5.43;;;27.30;61.20;;;;;;5033965;28;20053;-84
2022/03/28 09:12:33;;;;;;;11.43;4.63;;;29.00;58.10;;;;;;5032580;28;20053;-85
2022/03/28 09:15:04;;;;;;;11.85;4.47;;;29.20;57.50;;;;;;5032842;28;20140;-85
2022/03/28 09:17:32;;;;;;;51.40;7.55;;;29.50;55.30;;;;;;5032382;28;20045;-84
2022/03/28 09:20:02;;;;;;;14.68;5.38;;;29.20;56.50;;;;;;5032367;28;20076;-84
2022/03/28 09:22:37;;;;;;;18.75;5.82;;;28.20;57.40;;;;;;5033861;28;20125;-84
2022/03/28 09:25:08;;;;;;;11.80;4.80;;;28.70;57.30;;;;;;5033540;28;20430;-86
2022/03/28 09:27:39;;;;;;;10.80;4.03;;;28.70;54.90;;;;;;5033675;28;20192;-85
2022/03/28 09:30:19;;;;;;;29.65;5.93;;;28.50;54.90;;;;;;5031438;28;20045;-85
2022/03/28 09:32:52;;;;;;;6.35;3.80;;;28.80;55.60;;;;;;5032731;28;20140;-88
2022/03/28 09:35:21;;;;;;;17.75;4.30;;;28.40;54.20;;;;;;5032481;28;20053;-87
2022/03/28 09:37:58;;;;;;;4.85;3.20;;;27.70;56.90;;;;;;5033458;28;20049;-87
2022/03/28 09:40:29;;;;;;;5.63;3.30;;;28.30;56.50;;;;;;5032507;28;20049;-88
2022/03/28 09:42:57;;;;;;;9.88;3.95;;;28.70;55.50;;;;;;5032158;28;20409;-88
2022/03/28 09:45:27;;;;;;;6.63;3.20;;;28.00;55.50;;;;;;5030638;28;20055;-86
2022/03/28 09:48:06;;;;;;;5.22;3.20;;;28.00;56.00;;;;;;5029868;28;20053;-87
2022/03/28 09:50:39;;;;;;;5.15;3.33;;;28.90;55.00;;;;;;5027624;28;20049;-88
2022/03/28 09:53:27;;;;;;;9.05;3.50;;;28.80;54.80;;;;;;5032538;28;20049;-88
2022/03/28 09:56:00;;;;;;;9.88;3.75;;;29.20;54.50;;;;;;5032755;28;20050;-88
2022/03/28 09:58:32;;;;;;;13.33;4.23;;;29.20;54.90;;;;;;5034193;28;20497;-86
2022/03/28 10:01:00;;;;;;;6.00;3.20;;;29.80;54.80;;;;;;5032052;28;20307;-85
2022/03/28 10:03:33;;;;;;;3.45;3.15;;;30.10;53.70;;;;;;5033445;28;20099;-87
2022/03/28 10:06:01;;;;;;;3.88;2.95;;;29.40;52.10;;;;;;5031719;28;20053;-88
2022/03/28 10:08:29;;;;;;;4.13;2.95;;;28.20;53.60;;;;;;5033358;28;20136;-88
2022/03/28 10:10:59;;;;;;;5.68;2.83;;;26.90;54.10;;;;;;5033051;28;20076;-88
2022/03/28 10:13:29;;;;;;;3.92;3.35;;;25.40;56.50;;;;;;5032266;28;20053;-87
2022/03/28 10:16:01;;;;;;;4.15;3.75;;;24.10;59.50;;;;;;5031793;28;20037;-88
2022/03/28 10:18:33;;;;;;;9.98;3.60;;;23.30;61.40;;;;;;5031807;28;20057;-89
2022/03/28 10:21:15;;;;;;;8.15;3.22;;;22.50;63.30;;;;;;5032877;28;20120;-89
2022/03/28 10:23:47;;;;;;;4.20;3.47;;;21.70;65.90;;;;;;5031675;28;20049;-88
2022/03/28 10:26:17;;;;;;;6.20;3.30;;;20.90;67.80;;;;;;5032387;28;20049;-87
2022/03/28 10:29:09;;;;;;;5.90;3.00;;;20.40;70.20;;;;;;5031792;28;20041;-86
2022/03/28 10:31:59;;;;;;;8.25;3.13;;;20.30;72.60;;;;;;5031449;28;20395;-86
2022/03/28 10:34:45;;;;;;;;;;;20.80;72.20;;;;;;5032412;28;20049;-86
2022/03/28 10:37:35;;;;;;;27.73;4.40;;;20.40;72.20;;;;;;5031275;28;19967;-87
2022/03/28 10:40:12;;;;;;;7.13;2.78;;;20.80;71.40;;;;;;5031710;28;20077;-87
2022/03/28 10:42:45;;;;;;;9.27;2.88;;;21.30;71.90;;;;;;5035142;28;20391;-87
2022/03/28 10:45:16;;;;;;;16.88;3.80;;;22.30;68.50;;;;;;5035926;28;20156;-87
2022/03/28 10:47:52;;;;;;;3.97;3.08;;;23.70;65.50;;;;;;5035283;28;20050;-88
2022/03/28 10:50:28;;;;;;;3.30;2.95;;;24.10;62.90;;;;;;5036099;28;20393;-87
2022/03/28 10:53:19;;;;;;;3.95;2.60;;;26.10;61.40;;;;;;5035424;28;20136;-87
2022/03/28 10:55:47;;;;;;;5.00;2.38;;;27.90;57.40;;;;;;5035536;28;20477;-87
2022/03/28 10:58:22;;;;;;;8.05;3.20;;;28.10;56.60;;;;;;5035903;28;20049;-86
2022/03/28 11:01:12;;;;;;;3.05;2.70;;;27.60;55.50;;;;;;5035583;28;20124;-87
2022/03/28 11:03:43;;;;;;;3.30;3.00;;;28.10;55.30;;;;;;5035420;28;20053;-86
2022/03/28 11:06:10;;;;;;;2.70;2.58;;;27.80;53.90;;;;;;5034467;28;20080;-88
2022/03/28 11:08:48;;;;;;;4.03;2.85;;;27.50;55.80;;;;;;5035427;28;20099;-89
2022/03/28 11:11:23;;;;;;;2.50;2.30;;;27.80;54.40;;;;;;5036895;28;20460;-87
2022/03/28 11:14:16;;;;;;;5.57;3.17;;;27.80;53.80;;;;;;5037636;28;20057;-88
2022/03/28 11:16:50;;;;;;;4.55;2.90;;;26.30;54.70;;;;;;5031914;28;20050;-88
2022/03/28 11:19:29;;;;;;;5.43;2.85;;;24.60;57.00;;;;;;5035259;28;20045;-91
2022/03/28 11:22:02;;;;;;;13.20;3.55;;;24.30;59.20;;;;;;5035726;28;20077;-89
2022/03/28 11:24:56;;;;;;;2.42;2.28;;;25.40;59.30;;;;;;5035436;28;20386;-87
2022/03/28 11:27:29;;;;;;;5.93;2.53;;;26.90;55.90;;;;;;5035549;28;20049;-88
2022/03/28 11:30:05;;;;;;;5.13;2.40;;;26.20;55.50;;;;;;5036329;28;20053;-89
2022/03/28 11:32:35;;;;;;;3.08;2.40;;;25.30;57.10;;;;;;5035051;28;20577;-87
2022/03/28 11:35:03;;;;;;;3.13;2.85;;;25.20;59.20;;;;;;5035364;28;20144;-87
2022/03/28 11:37:30;;;;;;;4.45;3.00;;;26.60;57.40;;;;;;5034205;28;20084;-88
2022/03/28 11:39:58;;;;;;;3.40;2.60;;;27.40;57.20;;;;;;5034932;28;20092;-88
2022/03/28 11:42:28;;;;;;;2.72;2.53;;;27.90;55.60;;;;;;5034386;28;20144;-85
2022/03/28 11:44:55;;;;;;;9.30;2.80;;;28.40;54.10;;;;;;5035957;28;20506;-87
2022/03/28 11:47:23;;;;;;;8.05;2.67;;;27.70;54.20;;;;;;5030697;28;20549;-85
2022/03/28 11:49:59;;;;;;;2.83;2.63;;;26.90;54.90;;;;;;5034760;28;20072;-87
2022/03/28 11:52:28;;;;;;;2.90;2.70;;;26.30;56.50;;;;;;5034434;28;20111;-88
2022/03/28 11:54:57;;;;;;;4.55;2.63;;;27.10;56.30;;;;;;5033734;28;20375;-88
2022/03/28 12:00:25;;;;;;;2.70;2.50;;;26.90;54.40;;;;;;5035847;28;20072;-88
2022/03/28 12:02:57;;;;;;;3.53;2.30;;;27.30;54.80;;;;;;5034631;28;20148;-86
2022/03/28 12:05:42;;;;;;;5.20;2.65;;;27.80;52.90;;;;;;5035505;28;20482;-87
2022/03/28 12:08:14;;;;;;;2.92;2.40;;;28.00;52.40;;;;;;5034513;28;20100;-86
2022/03/28 12:10:43;;;;;;;42.95;4.68;;;26.90;53.10;;;;;;5034252;28;20449;-88
2022/03/28 12:13:10;;;;;;;11.82;2.60;;;25.70;55.00;;;;;;5035490;28;20128;-89
2022/03/28 12:15:46;;;;;;;5.53;2.33;;;24.70;57.00;;;;;;5034247;28;20168;-89
2022/03/28 12:18:15;;;;;;;6.22;2.58;;;23.60;58.70;;;;;;5031695;28;20566;-87
2022/03/28 12:20:44;;;;;;;5.90;2.47;;;22.70;60.30;;;;;;5033842;28;20060;-88
2022/03/28 12:23:13;;;;;;;12.70;2.55;;;22.20;62.60;;;;;;5035019;28;20422;-89
2022/03/28 12:25:42;;;;;;;2.33;2.05;;;21.90;63.10;;;;;;5035329;28;20096;-88
2022/03/28 12:28:15;;;;;;;3.33;1.77;;;21.60;63.90;;;;;;5035692;28;20080;-87
2022/03/28 12:30:49;;;;;;;9.43;2.33;;;21.30;64.00;;;;;;5035277;28;20081;-88
2022/03/28 12:33:34;;;;;;;18.67;2.08;;;21.30;65.00;;;;;;5034409;28;20136;-88
2022/03/28 12:36:14;;;;;;;10.75;3.15;;;21.80;64.10;;;;;;5032373;28;20058;-87
2022/03/28 12:38:45;;;;;;;3.88;2.45;;;21.70;62.70;;;;;;5033564;28;20058;-89
2022/03/28 12:41:14;;;;;;;12.73;2.42;;;21.80;63.20;;;;;;5033920;28;20085;-87
2022/03/28 12:43:52;;;;;;;22.10;2.50;;;21.60;62.20;;;;;;5033999;28;20064;-87
2022/03/28 12:46:19;;;;;;;9.35;2.30;;;21.40;63.50;;;;;;5030463;28;20049;-88
2022/03/28 12:48:54;;;;;;;5.82;2.03;;;21.30;63.40;;;;;;5013873;28;20046;-87
2022/03/28 12:51:29;;;;;;;10.70;2.42;;;20.90;64.20;;;;;;5024425;28;20057;-88
2022/03/28 12:54:09;;;;;;;23.83;2.35;;;20.80;65.40;;;;;;5033258;28;20057;-87
2022/03/28 12:56:49;;;;;;;7.88;2.17;;;21.10;64.40;;;;;;5032722;28;20042;-88
2022/03/28 12:59:25;;;;;;;8.82;1.95;;;20.70;63.80;;;;;;5033774;28;20136;-87
2022/03/28 13:02:03;;;;;;;2.58;1.75;;;20.60;65.10;;;;;;5033297;28;20131;-87
2022/03/28 13:04:44;;;;;;;7.90;2.53;;;20.60;65.00;;;;;;5013673;28;20054;-88